Time;durP1;ratioP1;P1;durP2;ratioP2;P2;SDS_P1;SDS_P2;PMS_P1;PMS_P2;Temp;Humidity;BMP_temperature;BMP_pressure;BME280_temperature;BME280_humidity;BME280_pressure;Samples;Min_cycle;Max_cycle;Signal;HPM_P1;HPM_P2
2023/03/23 00:02:25;;;;;;;12.88;9.00;;;231.10;2252.80;;;;;;4963895;28;20039;-63
2023/03/23 00:04:52;;;;;;;15.27;9.90;;;231.10;2252.80;;;;;;4958201;28;20066;-65
2023/03/23 00:07:21;;;;;;;14.00;9.60;;;231.10;2252.80;;;;;;4961516;28;20027;-65
2023/03/23 00:09:53;;;;;;;15.63;10.98;;;231.10;2252.80;;;;;;4960634;28;20030;-65
2023/03/23 00:12:33;;;;;;;21.08;14.23;;;231.10;2252.80;;;;;;4957633;28;20022;-65
2023/03/23 00:15:06;;;;;;;14.52;11.45;;;231.10;2252.80;;;;;;4963761;28;20085;-64
2023/03/23 00:17:33;;;;;;;16.27;9.98;;;231.00;2252.80;;;;;;4959159;28;20474;-66
2023/03/23 00:20:00;;;;;;;13.55;8.90;;;230.90;2252.80;;;;;;4962798;28;20125;-66
2023/03/23 00:22:28;;;;;;;10.32;8.15;;;230.90;2252.80;;;;;;4964964;28;20410;-65
2023/03/23 00:24:54;;;;;;;15.80;8.63;;;230.90;2252.80;;;;;;4967718;28;20346;-64
2023/03/23 00:27:24;;;;;;;13.57;9.93;;;230.80;2252.80;;;;;;4976169;28;20050;-64
2023/03/23 00:29:53;;;;;;;15.98;11.23;;;230.90;2252.80;;;;;;4977094;28;20129;-66
2023/03/23 00:32:28;;;;;;;39.78;25.20;;;230.90;2252.80;;;;;;4972203;28;20073;-67
2023/03/23 00:34:55;;;;;;;52.90;27.75;;;230.80;2252.80;;;;;;4972301;28;20047;-67
2023/03/23 00:37:21;;;;;;;28.02;16.02;;;230.80;2252.80;;;;;;4972385;28;20109;-64
2023/03/23 00:39:47;;;;;;;21.08;11.65;;;230.90;2252.80;;;;;;4971620;28;20102;-65
2023/03/23 00:42:14;;;;;;;12.40;9.38;;;230.80;2252.80;;;;;;4972145;28;20030;-67
2023/03/23 00:44:40;;;;;;;13.18;9.02;;;230.80;2252.80;;;;;;4971791;28;20014;-66
2023/03/23 00:47:10;;;;;;;11.63;8.32;;;230.70;2252.80;;;;;;4971912;28;20030;-65
2023/03/23 00:49:36;;;;;;;13.85;8.70;;;230.70;2252.80;;;;;;4971994;28;20215;-69
2023/03/23 00:52:03;;;;;;;12.32;8.13;;;230.80;2252.80;;;;;;4971752;28;20109;-61
2023/03/23 00:54:29;;;;;;;18.00;13.48;;;230.70;2252.80;;;;;;4971297;28;20053;-62
2023/03/23 00:56:55;;;;;;;20.25;14.63;;;230.70;2252.80;;;;;;4972162;28;20481;-63
2023/03/23 00:59:21;;;;;;;14.98;10.55;;;230.70;2252.80;;;;;;4972305;28;20022;-69
2023/03/23 01:01:48;;;;;;;13.73;9.55;;;230.70;2252.80;;;;;;4970413;28;20386;-69
2023/03/23 01:04:14;;;;;;;18.45;9.98;;;230.70;2252.80;;;;;;4971688;28;20030;-64
2023/03/23 01:06:42;;;;;;;12.57;8.20;;;230.60;2252.80;;;;;;4971852;28;20027;-64
2023/03/23 01:09:14;;;;;;;13.18;8.02;;;230.70;2252.80;;;;;;4971753;28;20098;-63
2023/03/23 01:11:44;;;;;;;22.85;13.15;;;230.60;2252.80;;;;;;4954354;28;20027;-64
2023/03/23 01:14:10;;;;;;;19.67;14.05;;;230.60;2252.80;;;;;;4971956;28;20093;-63
2023/03/23 01:16:36;;;;;;;22.95;14.10;;;230.50;2252.80;;;;;;4971591;28;20023;-64
2023/03/23 01:19:02;;;;;;;15.55;11.35;;;230.50;2252.80;;;;;;4971649;28;20080;-63
2023/03/23 01:21:28;;;;;;;14.35;10.63;;;230.40;2252.80;;;;;;4971324;28;20394;-64
2023/03/23 01:23:54;;;;;;;14.32;11.65;;;230.40;2252.80;;;;;;4971302;28;20038;-65
2023/03/23 01:26:22;;;;;;;26.50;18.40;;;230.40;2252.80;;;;;;4971188;28;20093;-66
2023/03/23 01:28:49;;;;;;;70.40;35.63;;;230.40;2252.80;;;;;;4971369;28;20385;-68
2023/03/23 01:31:20;;;;;;;130.52;58.70;;;230.50;2252.80;;;;;;4971485;28;20465;-65
2023/03/23 01:33:48;;;;;;;32.05;16.10;;;230.50;2252.80;;;;;;4971056;28;20085;-66
2023/03/23 01:36:17;;;;;;;14.93;10.65;;;230.40;2252.80;;;;;;4971433;28;20023;-68
2023/03/23 01:38:45;;;;;;;11.60;9.27;;;205.70;2252.80;;;;;;4971076;28;20031;-64
2023/03/23 01:41:11;;;;;;;20.13;10.88;;;205.50;2252.80;;;;;;4970915;28;20409;-64
2023/03/23 01:44:01;;;;;;;13.30;8.52;;;205.60;2252.80;;;;;;4971266;28;20081;-65
2023/03/23 01:46:33;;;;;;;15.13;9.63;;;205.60;2252.80;;;;;;4970991;28;20517;-65
2023/03/23 01:49:08;;;;;;;11.95;8.27;;;205.50;2252.80;;;;;;4970916;28;20134;-65
2023/03/23 01:51:37;;;;;;;11.55;8.43;;;205.60;2252.80;;;;;;4971193;28;20038;-64
2023/03/23 01:54:07;;;;;;;11.57;7.32;;;205.60;2252.80;;;;;;4970917;28;20046;-68
2023/03/23 01:56:40;;;;;;;14.20;8.18;;;205.50;2252.80;;;;;;4971132;28;20090;-69
2023/03/23 01:59:08;;;;;;;13.38;9.07;;;205.50;2252.80;;;;;;4970853;28;20461;-64
2023/03/23 02:01:38;;;;;;;39.35;19.00;;;205.60;2252.80;;;;;;4970942;28;20022;-65
2023/03/23 02:04:05;;;;;;;65.65;42.20;;;205.60;2252.80;;;;;;4971208;28;20035;-64
2023/03/23 02:06:31;;;;;;;39.22;23.55;;;205.60;2252.80;;;;;;4970741;28;20026;-63
2023/03/23 02:08:57;;;;;;;19.33;12.00;;;205.60;2252.80;;;;;;4970582;28;20022;-63
2023/03/23 02:11:23;;;;;;;19.42;12.27;;;205.30;2252.80;;;;;;4970819;28;20027;-63
2023/03/23 02:13:50;;;;;;;13.60;9.07;;;205.40;2252.80;;;;;;4970335;28;20053;-64
2023/03/23 02:16:43;;;;;;;14.48;8.52;;;205.20;2252.80;;;;;;4970735;28;20105;-63
2023/03/23 02:19:24;;;;;;;14.43;9.15;;;205.20;2252.80;;;;;;4970674;28;20050;-64
2023/03/23 02:22:22;;;;;;;14.63;9.43;;;205.30;2252.80;;;;;;4970489;28;20493;-64
2023/03/23 02:25:15;;;;;;;16.35;10.07;;;205.20;2252.80;;;;;;4970211;28;20049;-65
2023/03/23 02:27:50;;;;;;;15.02;9.63;;;205.10;2252.80;;;;;;4970669;28;20477;-63
2023/03/23 02:30:52;;;;;;;16.42;10.57;;;205.00;2252.80;;;;;;4970665;28;20524;-64
2023/03/23 02:33:24;;;;;;;17.02;10.60;;;205.00;2252.80;;;;;;4962257;28;20041;-66
2023/03/23 02:35:56;;;;;;;14.48;10.25;;;205.00;2252.80;;;;;;4969973;28;20041;-66
2023/03/23 02:38:33;;;;;;;12.32;8.48;;;205.00;2252.80;;;;;;4970985;28;20031;-63
2023/03/23 02:41:02;;;;;;;14.05;8.75;;;205.10;2252.80;;;;;;4969985;28;20019;-66
2023/03/23 02:43:34;;;;;;;15.75;10.02;;;205.20;2252.80;;;;;;4970306;28;20105;-66
2023/03/23 02:46:01;;;;;;;22.95;12.18;;;205.10;2252.80;;;;;;4970278;28;20030;-66
2023/03/23 02:48:30;;;;;;;16.52;10.00;;;205.00;2252.80;;;;;;4970233;28;20489;-63
2023/03/23 02:50:57;;;;;;;13.82;9.43;;;205.00;2252.80;;;;;;4970003;28;20035;-66
2023/03/23 02:53:26;;;;;;;10.73;8.65;;;205.00;2252.80;;;;;;4969921;28;20293;-65
2023/03/23 02:55:54;;;;;;;12.48;8.07;;;204.90;2252.80;;;;;;4970234;28;20098;-67
2023/03/23 02:58:21;;;;;;;11.85;8.02;;;205.00;2252.80;;;;;;4969862;28;20033;-67
2023/03/23 03:00:49;;;;;;;15.65;9.52;;;204.90;2252.80;;;;;;4970442;28;20385;-66
2023/03/23 03:03:21;;;;;;;19.45;12.68;;;204.90;2252.80;;;;;;4970163;28;20029;-66
2023/03/23 03:05:54;;;;;;;20.73;13.27;;;204.80;2252.80;;;;;;4970217;28;20031;-67
2023/03/23 03:08:34;;;;;;;13.70;9.95;;;204.90;2252.80;;;;;;4956960;28;20466;-66
2023/03/23 03:11:12;;;;;;;14.38;9.10;;;204.80;2252.80;;;;;;4969560;28;20524;-64
2023/03/23 03:13:55;;;;;;;18.75;11.50;;;204.80;2252.80;;;;;;4969889;28;20049;-66
2023/03/23 03:16:21;;;;;;;21.03;13.63;;;204.90;2252.80;;;;;;4970082;28;20023;-67
2023/03/23 03:18:55;;;;;;;19.15;12.13;;;205.00;2252.80;;;;;;4969777;28;20118;-66
2023/03/23 03:21:25;;;;;;;15.35;12.00;;;204.80;2252.80;;;;;;4970004;28;20093;-68
2023/03/23 03:23:55;;;;;;;14.18;9.43;;;204.80;2252.80;;;;;;4969848;28;20476;-67
2023/03/23 03:26:26;;;;;;;13.60;10.20;;;180.00;2252.80;;;;;;4970330;28;20030;-63
2023/03/23 03:28:53;;;;;;;13.82;9.60;;;179.90;2252.80;;;;;;4970001;28;20033;-67
2023/03/23 03:31:27;;;;;;;19.83;15.75;;;179.80;2252.80;;;;;;4969742;28;20030;-66
2023/03/23 03:33:53;;;;;;;18.70;13.52;;;179.90;2252.80;;;;;;4969406;28;20089;-67
2023/03/23 03:36:25;;;;;;;18.40;10.07;;;180.00;2252.80;;;;;;4970054;28;20015;-66
2023/03/23 03:38:52;;;;;;;15.93;9.87;;;179.90;2252.80;;;;;;4969343;28;20026;-69
2023/03/23 03:41:19;;;;;;;14.48;11.27;;;180.00;2252.80;;;;;;4969680;28;20023;-68
2023/03/23 03:43:44;;;;;;;12.20;9.23;;;180.10;2252.80;;;;;;4969950;28;20102;-67
2023/03/23 03:46:10;;;;;;;16.02;9.70;;;180.00;2252.80;;;;;;4969807;28;20534;-68
2023/03/23 03:48:36;;;;;;;17.67;11.57;;;180.10;2252.80;;;;;;4972382;28;20047;-66
2023/03/23 03:51:02;;;;;;;12.02;7.63;;;180.00;2252.80;;;;;;4973367;28;20051;-68
2023/03/23 03:53:28;;;;;;;12.63;9.10;;;179.90;2252.80;;;;;;4972493;28;20039;-69
2023/03/23 03:55:59;;;;;;;16.75;11.90;;;180.00;2252.80;;;;;;4973078;28;20089;-68
2023/03/23 03:58:31;;;;;;;14.65;9.85;;;180.10;2252.80;;;;;;4972950;28;20066;-66
2023/03/23 04:01:00;;;;;;;12.85;8.55;;;180.10;2252.80;;;;;;4973035;28;20035;-67
2023/03/23 04:03:27;;;;;;;10.85;8.07;;;180.00;2252.80;;;;;;4972991;28;20014;-67
2023/03/23 04:05:55;;;;;;;12.35;8.98;;;180.00;2252.80;;;;;;4973444;28;20026;-66
2023/03/23 04:08:22;;;;;;;10.45;7.80;;;180.00;2252.80;;;;;;4972971;28;20035;-66
2023/03/23 04:10:48;;;;;;;13.82;7.68;;;180.10;2252.80;;;;;;4972288;28;20058;-67
2023/03/23 04:13:15;;;;;;;10.77;7.95;;;180.00;2252.80;;;;;;4973025;28;20026;-67
2023/03/23 04:15:40;;;;;;;15.60;9.98;;;180.10;2252.80;;;;;;4972803;28;20045;-65
2023/03/23 04:18:06;;;;;;;16.02;9.80;;;180.10;2252.80;;;;;;4972835;28;20089;-63
2023/03/23 04:20:34;;;;;;;9.25;7.85;;;180.10;2252.80;;;;;;4972993;28;20381;-68
2023/03/23 04:23:01;;;;;;;10.40;8.10;;;180.00;2252.80;;;;;;4972253;28;20050;-68
2023/03/23 04:25:27;;;;;;;12.35;9.27;;;180.00;2252.80;;;;;;4972446;28;20026;-65
2023/03/23 04:27:54;;;;;;;12.75;7.63;;;180.00;2252.80;;;;;;4972581;28;20082;-66
2023/03/23 04:30:22;;;;;;;9.93;8.38;;;180.00;2252.80;;;;;;4972264;28;20035;-66
2023/03/23 04:32:54;;;;;;;10.20;8.35;;;180.00;2252.80;;;;;;4972642;28;20304;-67
2023/03/23 04:35:24;;;;;;;10.50;6.93;;;180.00;2252.80;;;;;;4954698;28;20035;-67
2023/03/23 04:37:50;;;;;;;10.73;7.47;;;179.90;2252.80;;;;;;4970610;28;20363;-67
2023/03/23 04:40:17;;;;;;;14.40;7.10;;;180.00;2252.80;;;;;;4972027;28;20027;-66
2023/03/23 04:42:47;;;;;;;12.85;7.82;;;179.90;2252.80;;;;;;4972189;28;20031;-67
2023/03/23 04:45:15;;;;;;;10.90;7.13;;;179.80;2252.80;;;;;;4972042;28;20466;-66
2023/03/23 04:47:41;;;;;;;12.40;6.93;;;179.90;2252.80;;;;;;4972299;28;20482;-65
2023/03/23 04:50:12;;;;;;;12.38;7.60;;;180.00;2252.80;;;;;;4971615;28;20023;-66
2023/03/23 04:52:44;;;;;;;13.77;8.02;;;180.00;2252.80;;;;;;4972451;28;20026;-66
2023/03/23 04:55:10;;;;;;;11.00;8.77;;;180.00;2252.80;;;;;;4971430;28;20049;-68
2023/03/23 04:57:36;;;;;;;9.95;6.78;;;180.00;2252.80;;;;;;4972065;28;20505;-67
2023/03/23 05:00:08;;;;;;;12.65;6.68;;;180.10;2252.80;;;;;;4971705;28;20034;-67
2023/03/23 05:02:39;;;;;;;9.90;6.67;;;180.10;2252.80;;;;;;4972132;28;20034;-66
2023/03/23 05:05:05;;;;;;;11.27;8.18;;;204.80;2252.80;;;;;;4971753;28;20465;-67
2023/03/23 05:07:31;;;;;;;12.60;7.68;;;204.90;2252.80;;;;;;4971769;28;20031;-67
2023/03/23 05:09:57;;;;;;;9.80;6.90;;;204.80;2252.80;;;;;;4971175;28;20069;-65
2023/03/23 05:12:23;;;;;;;12.32;9.05;;;204.80;2252.80;;;;;;4971649;28;20030;-66
2023/03/23 05:14:48;;;;;;;8.20;7.00;;;205.00;2252.80;;;;;;4971560;28;20034;-67
2023/03/23 05:17:16;;;;;;;12.05;8.23;;;204.90;2252.80;;;;;;4957467;28;20606;-68
2023/03/23 05:19:44;;;;;;;10.27;7.93;;;204.90;2252.80;;;;;;4971667;28;20022;-65
2023/03/23 05:22:12;;;;;;;10.95;8.32;;;205.00;2252.80;;;;;;4971425;28;20039;-66
2023/03/23 05:24:38;;;;;;;16.67;8.85;;;205.20;2252.80;;;;;;4970965;28;20027;-65
2023/03/23 05:27:04;;;;;;;13.18;7.97;;;205.40;2252.80;;;;;;4971698;28;20537;-65
2023/03/23 05:29:30;;;;;;;10.65;8.48;;;205.30;2252.80;;;;;;4971238;28;20031;-66
2023/03/23 05:31:59;;;;;;;10.93;7.63;;;205.60;2252.80;;;;;;4971683;28;20042;-65
2023/03/23 05:34:26;;;;;;;12.65;8.27;;;205.50;2252.80;;;;;;4971531;28;20077;-65
2023/03/23 05:36:53;;;;;;;12.27;8.20;;;205.40;2252.80;;;;;;4970781;28;20023;-65
2023/03/23 05:39:19;;;;;;;9.18;7.28;;;205.50;2252.80;;;;;;4970759;28;20033;-66
2023/03/23 05:41:46;;;;;;;14.10;8.23;;;205.60;2252.80;;;;;;4971552;28;20022;-66
2023/03/23 05:44:13;;;;;;;10.57;8.40;;;230.40;2252.80;;;;;;4971265;28;20022;-66
2023/03/23 05:46:39;;;;;;;11.82;7.93;;;230.50;2252.80;;;;;;4971255;28;20019;-66
2023/03/23 05:49:05;;;;;;;13.73;7.78;;;230.50;2252.80;;;;;;4971242;28;20053;-65
2023/03/23 05:51:31;;;;;;;11.95;9.02;;;231.00;2252.80;;;;;;4970946;28;20079;-65
2023/03/23 05:53:57;;;;;;;11.63;8.35;;;281.70;2278.40;;;;;;4970265;28;20539;-65
2023/03/23 05:56:23;;;;;;;10.32;7.85;;;333.00;2329.60;;;;;;4971180;28;20026;-65
2023/03/23 05:58:49;;;;;;;11.73;7.85;;;358.60;2278.40;;;;;;4970795;28;20031;-65
2023/03/23 06:01:15;;;;;;;9.65;7.63;;;359.10;2201.60;;;;;;4971070;28;20404;-65
2023/03/23 06:03:41;;;;;;;10.20;7.70;;;358.50;2252.80;;;;;;4970893;28;20027;-67
2023/03/23 06:06:11;;;;;;;16.65;10.45;;;358.50;2278.40;;;;;;4970851;28;20023;-64
2023/03/23 06:08:37;;;;;;;11.40;9.63;;;384.70;2073.60;;;;;;4970604;28;20026;-68
2023/03/23 06:11:03;;;;;;;10.45;8.65;;;410.50;1996.80;;;;;;4970039;28;20043;-66
2023/03/23 06:13:29;;;;;;;11.50;9.25;;;435.80;1894.40;;;;;;4970366;28;20043;-68
2023/03/23 06:15:59;;;;;;;11.55;9.48;;;460.80;1843.20;;;;;;4970792;28;20027;-65
2023/03/23 06:18:24;;;;;;;12.50;10.35;;;460.90;1817.60;;;;;;4970928;28;20034;-66
2023/03/23 06:20:50;;;;;;;24.35;17.08;;;486.40;1766.40;;;;;;4970479;28;20034;-67
2023/03/23 06:23:17;;;;;;;17.13;15.52;;;486.90;1664.00;;;;;;4970271;28;20105;-67
2023/03/23 06:25:43;;;;;;;15.88;14.27;;;487.10;1689.60;;;;;;4970295;28;20023;-66
2023/03/23 06:28:09;;;;;;;19.60;11.27;;;512.90;1612.80;;;;;;4970635;28;20026;-68
2023/03/23 06:30:36;;;;;;;13.80;12.50;;;538.50;1561.60;;;;;;4970781;28;20029;-67
2023/03/23 06:33:05;;;;;;;19.07;15.53;;;563.80;1536.00;;;;;;4970497;28;20030;-68
2023/03/23 06:35:31;;;;;;;17.23;15.52;;;589.00;1484.80;;;;;;4970352;28;20127;-67
2023/03/23 06:38:01;;;;;;;146.25;132.27;;;640.00;1408.00;;;;;;4970428;28;20433;-65
2023/03/23 06:40:28;;;;;;;104.93;94.35;;;665.70;1356.80;;;;;;4970045;28;20046;-67
2023/03/23 06:42:54;;;;;;;30.60;27.50;;;666.30;1305.60;;;;;;4970135;28;20054;-62
2023/03/23 06:45:20;;;;;;;29.08;26.15;;;691.20;1280.00;;;;;;4970088;28;20026;-60
2023/03/23 06:47:48;;;;;;;19.77;17.98;;;666.50;1280.00;;;;;;4969981;28;20469;-61
2023/03/23 06:50:16;;;;;;;17.63;16.00;;;691.30;1280.00;;;;;;4970257;28;20049;-61
2023/03/23 06:52:46;;;;;;;12.60;11.32;;;692.00;1228.80;;;;;;4970343;28;20501;-62
2023/03/23 06:55:13;;;;;;;11.35;10.32;;;691.30;1254.40;;;;;;4969975;28;20119;-60
2023/03/23 06:57:39;;;;;;;14.70;12.90;;;666.50;1254.40;;;;;;4970427;28;20023;-61
2023/03/23 07:00:09;;;;;;;20.88;12.45;;;666.50;1254.40;;;;;;4970196;28;20035;-60
2023/03/23 07:02:35;;;;;;;11.38;10.38;;;691.40;1228.80;;;;;;4970455;28;20038;-61
2023/03/23 07:05:02;;;;;;;43.58;39.45;;;717.60;1203.20;;;;;;4970252;28;20023;-61
2023/03/23 07:07:29;;;;;;;12.50;11.32;;;742.40;1203.20;;;;;;4969931;28;20404;-60
2023/03/23 07:09:55;;;;;;;12.73;11.73;;;717.60;1177.60;;;;;;4970096;28;20076;-61
2023/03/23 07:12:21;;;;;;;12.02;10.90;;;742.90;1177.60;;;;;;4969810;28;20405;-63
2023/03/23 07:14:47;;;;;;;12.00;11.00;;;742.60;1203.20;;;;;;4969907;28;20027;-62
2023/03/23 07:17:13;;;;;;;14.45;12.93;;;743.20;1177.60;;;;;;4970022;28;20026;-63
2023/03/23 07:19:40;;;;;;;26.88;24.58;;;793.80;1152.00;;;;;;4970377;28;20030;-64
2023/03/23 07:22:07;;;;;;;12.88;11.60;;;819.90;1075.20;;;;;;4961977;28;20575;-62
2023/03/23 07:24:34;;;;;;;13.95;12.65;;;845.40;1049.60;;;;;;4954406;29;20389;-62
2023/03/23 07:27:01;;;;;;;19.52;17.42;;;870.60;1049.60;;;;;;4954165;29;20601;-62
2023/03/23 07:29:27;;;;;;;24.20;21.67;;;870.70;1024.00;;;;;;4954009;29;20058;-63
2023/03/23 07:31:53;;;;;;;23.25;21.15;;;871.00;1024.00;;;;;;4954491;29;20058;-63
2023/03/23 07:34:19;;;;;;;24.85;22.40;;;896.10;972.80;;;;;;4943619;29;20043;-62
2023/03/23 07:36:46;;;;;;;22.50;20.45;;;896.30;972.80;;;;;;4954495;29;20464;-62
2023/03/23 07:39:12;;;;;;;23.20;21.13;;;896.20;947.20;;;;;;4953848;29;20027;-61
2023/03/23 07:41:38;;;;;;;26.88;22.75;;;845.40;998.40;;;;;;4953907;29;20089;-63
2023/03/23 07:44:05;;;;;;;24.90;22.40;;;844.90;1049.60;;;;;;4954111;28;20028;-62
2023/03/23 07:46:31;;;;;;;33.15;29.42;;;870.60;972.80;;;;;;4953846;29;20054;-63
2023/03/23 07:48:58;;;;;;;30.95;28.00;;;871.20;947.20;;;;;;4953767;29;20078;-63
2023/03/23 07:51:24;;;;;;;27.02;24.73;;;921.70;921.60;;;;;;4953252;29;20530;-63
2023/03/23 07:53:51;;;;;;;31.00;27.98;;;871.00;972.80;;;;;;4949719;29;20043;-65
2023/03/23 07:56:19;;;;;;;27.08;24.65;;;870.90;972.80;;;;;;4953252;29;20051;-65
2023/03/23 07:58:48;;;;;;;24.85;22.20;;;896.50;921.60;;;;;;4953758;29;20027;-63
2023/03/23 08:01:14;;;;;;;27.30;24.35;;;870.90;972.80;;;;;;4953703;29;20027;-63
2023/03/23 08:03:40;;;;;;;31.48;28.23;;;922.00;921.60;;;;;;4951815;29;20065;-63
2023/03/23 08:06:06;;;;;;;32.13;25.45;;;922.50;896.00;;;;;;4952075;29;20457;-64
2023/03/23 08:08:32;;;;;;;31.55;25.55;;;871.10;972.80;;;;;;4952249;29;20027;-65
2023/03/23 08:10:59;;;;;;;32.58;26.23;;;845.40;1024.00;;;;;;4951786;29;20505;-62
2023/03/23 08:13:25;;;;;;;31.83;28.55;;;794.20;1100.80;;;;;;4952213;29;20028;-63
2023/03/23 08:15:51;;;;;;;29.05;25.98;;;;;;;;;;4951573;29;20540;-63
2023/03/23 08:18:17;;;;;;;28.58;25.23;;;870.60;998.40;;;;;;4952380;29;20106;-64
2023/03/23 08:20:44;;;;;;;27.30;23.15;;;794.50;1075.20;;;;;;4952062;29;20114;-63
2023/03/23 08:23:10;;;;;;;24.42;21.40;;;819.30;1049.60;;;;;;4964566;28;20062;-63
2023/03/23 08:25:37;;;;;;;22.13;19.88;;;794.10;1075.20;;;;;;4963860;28;20421;-64
2023/03/23 08:28:03;;;;;;;24.92;22.25;;;793.80;1100.80;;;;;;4971143;28;20103;-62
2023/03/23 08:30:32;;;;;;;24.70;19.90;;;845.30;1024.00;;;;;;4970333;28;20162;-63
2023/03/23 08:33:00;;;;;;;21.45;19.27;;;819.40;1049.60;;;;;;4970023;28;20035;-63
2023/03/23 08:35:26;;;;;;;22.60;20.02;;;819.50;1049.60;;;;;;4970727;28;20042;-65
2023/03/23 08:37:54;;;;;;;25.42;20.20;;;819.90;1024.00;;;;;;4971019;28;20034;-64
2023/03/23 08:40:22;;;;;;;19.92;17.45;;;794.50;1075.20;;;;;;4970478;28;20074;-64
2023/03/23 08:42:49;;;;;;;18.95;16.92;;;844.80;1024.00;;;;;;4970608;28;20034;-64
2023/03/23 08:45:19;;;;;;;19.20;15.63;;;819.60;1049.60;;;;;;4971142;28;20037;-64
2023/03/23 08:47:46;;;;;;;17.33;15.25;;;793.70;1100.80;;;;;;4971013;28;20027;-63
2023/03/23 08:50:15;;;;;;;15.82;14.32;;;768.60;1100.80;;;;;;4970650;28;20023;-63
2023/03/23 08:52:43;;;;;;;22.70;19.65;;;768.80;1075.20;;;;;;4970467;28;20114;-63
2023/03/23 08:55:09;;;;;;;21.77;16.02;;;819.30;1049.60;;;;;;4969724;28;20520;-63
2023/03/23 08:57:36;;;;;;;19.35;14.90;;;819.50;1049.60;;;;;;4970400;28;20027;-63
2023/03/23 09:00:15;;;;;;;18.02;15.70;;;819.90;1024.00;;;;;;4970789;28;20033;-65
2023/03/23 09:02:47;;;;;;;19.25;15.13;;;793.90;1075.20;;;;;;4958196;28;20026;-63
2023/03/23 09:05:14;;;;;;;16.20;14.50;;;794.20;1049.60;;;;;;4970239;28;20508;-63
2023/03/23 09:07:41;;;;;;;22.23;17.52;;;742.90;1100.80;;;;;;4970592;28;20097;-63
2023/03/23 09:10:09;;;;;;;21.27;18.02;;;691.80;1152.00;;;;;;4969681;28;20049;-63
2023/03/23 09:12:35;;;;;;;19.67;15.48;;;691.30;1177.60;;;;;;4970553;28;20114;-62
2023/03/23 09:15:08;;;;;;;18.73;13.77;;;666.30;1177.60;;;;;;4970026;28;20034;-63
2023/03/23 09:17:36;;;;;;;11.47;9.40;;;640.50;1228.80;;;;;;4970272;28;20377;-62
2023/03/23 09:20:07;;;;;;;14.18;8.00;;;640.40;1228.80;;;;;;4970117;28;20265;-63
2023/03/23 09:22:33;;;;;;;11.68;8.13;;;615.30;1228.80;;;;;;4956337;28;20106;-63
2023/03/23 09:24:58;;;;;;;9.63;7.47;;;614.80;1254.40;;;;;;4950626;29;20023;-62
2023/03/23 09:27:25;;;;;;;7.50;5.85;;;614.60;1254.40;;;;;;4950903;29;20023;-62
2023/03/23 09:29:51;;;;;;;12.38;6.65;;;614.90;1254.40;;;;;;4950715;29;20410;-62
2023/03/23 09:32:17;;;;;;;11.98;5.60;;;614.70;1254.40;;;;;;4950830;29;20031;-64
2023/03/23 09:34:43;;;;;;;10.60;5.95;;;614.60;1254.40;;;;;;4950266;29;20039;-63
2023/03/23 09:37:09;;;;;;;11.18;5.57;;;614.50;1254.40;;;;;;4950457;29;20031;-62
2023/03/23 09:39:34;;;;;;;10.63;5.75;;;589.70;1254.40;;;;;;4950796;29;20114;-63
2023/03/23 09:42:16;;;;;;;11.50;7.40;;;589.30;1280.00;;;;;;4951372;29;20031;-62
2023/03/23 09:44:58;;;;;;;10.93;6.45;;;589.40;1305.60;;;;;;4952106;28;20023;-62
2023/03/23 09:48:03;;;;;;;11.27;8.48;;;589.70;1305.60;;;;;;4939353;29;20032;-62
2023/03/23 09:50:32;;;;;;;6.55;5.07;;;589.70;1280.00;;;;;;4951603;29;20023;-62
2023/03/23 09:53:01;;;;;;;9.43;4.95;;;589.70;1228.80;;;;;;4951627;29;20038;-62
2023/03/23 09:55:28;;;;;;;8.93;5.47;;;589.10;1280.00;;;;;;4951108;29;20095;-63
2023/03/23 09:58:10;;;;;;;8.50;5.07;;;589.20;1280.00;;;;;;4951448;29;20093;-62
2023/03/23 10:01:20;;;;;;;7.70;6.30;;;589.20;1280.00;;;;;;4951767;29;20031;-63
2023/03/23 10:03:47;;;;;;;5.97;4.72;;;589.00;1280.00;;;;;;4951205;29;20062;-60
2023/03/23 10:06:17;;;;;;;7.25;4.80;;;563.90;1280.00;;;;;;4951429;29;20023;-62
2023/03/23 10:08:53;;;;;;;7.60;4.13;;;564.10;1280.00;;;;;;4951323;29;20102;-62
2023/03/23 10:11:19;;;;;;;6.47;4.80;;;564.10;1254.40;;;;;;4951278;29;20023;-62
2023/03/23 10:14:25;;;;;;;15.20;6.30;;;588.90;1280.00;;;;;;4951281;29;20489;-62
2023/03/23 10:17:26;;;;;;;10.88;4.57;;;564.00;1305.60;;;;;;4892043;29;20567;-62
2023/03/23 10:19:54;;;;;;;6.15;4.45;;;564.10;1280.00;;;;;;4892253;29;20048;-62
2023/03/23 10:22:32;;;;;;;4.88;4.03;;;564.10;1280.00;;;;;;4903339;29;20566;-62
2023/03/23 10:25:16;;;;;;;9.70;6.78;;;564.10;1305.60;;;;;;4910453;29;20035;-62
2023/03/23 10:28:10;;;;;;;6.53;5.43;;;563.70;1305.60;;;;;;4910029;29;20119;-62
2023/03/23 10:30:41;;;;;;;10.45;6.13;;;563.40;1331.20;;;;;;4910509;29;20064;-61
2023/03/23 10:33:18;;;;;;;8.38;5.78;;;563.30;1305.60;;;;;;4910443;29;20491;-63
2023/03/23 10:36:00;;;;;;;7.28;5.65;;;563.90;1305.60;;;;;;4910859;29;20129;-62
2023/03/23 10:38:34;;;;;;;6.90;5.18;;;563.90;1305.60;;;;;;4910665;29;20063;-62
2023/03/23 10:41:09;;;;;;;10.65;8.00;;;563.60;1331.20;;;;;;4910256;29;20036;-61
2023/03/23 10:43:35;;;;;;;6.88;5.18;;;563.90;1331.20;;;;;;4910223;29;20036;-62
2023/03/23 10:46:05;;;;;;;10.05;6.07;;;563.80;1280.00;;;;;;4911164;29;20064;-62
2023/03/23 10:48:37;;;;;;;6.85;5.25;;;563.60;1331.20;;;;;;4929523;29;20024;-62
2023/03/23 10:51:09;;;;;;;7.45;4.40;;;563.90;1331.20;;;;;;4929848;29;20031;-62
2023/03/23 10:53:37;;;;;;;5.93;5.00;;;564.10;1331.20;;;;;;4968481;28;20126;-61
2023/03/23 10:56:05;;;;;;;10.48;5.50;;;564.00;1305.60;;;;;;4970393;28;20034;-61
2023/03/23 10:58:33;;;;;;;9.98;7.07;;;564.10;1305.60;;;;;;4973955;28;20086;-62
2023/03/23 11:01:02;;;;;;;9.85;6.85;;;564.10;1305.60;;;;;;4974328;28;20465;-62
2023/03/23 11:03:49;;;;;;;7.18;5.00;;;564.00;1331.20;;;;;;4973779;28;20050;-62
2023/03/23 11:06:35;;;;;;;8.23;5.20;;;563.70;1331.20;;;;;;4974133;28;20034;-62
2023/03/23 11:09:17;;;;;;;7.45;5.18;;;563.60;1356.80;;;;;;4974285;28;20039;-62
2023/03/23 11:11:54;;;;;;;5.65;4.65;;;563.70;1331.20;;;;;;4961437;28;20015;-62
2023/03/23 11:14:30;;;;;;;9.60;7.03;;;564.00;1305.60;;;;;;4973502;28;20067;-62
2023/03/23 11:16:58;;;;;;;6.85;4.90;;;563.60;1331.20;;;;;;4974191;28;20023;-62
2023/03/23 11:19:29;;;;;;;12.48;8.77;;;563.40;1331.20;;;;;;4973986;28;20030;-61
2023/03/23 11:22:13;;;;;;;12.70;6.10;;;538.50;1331.20;;;;;;4965375;28;20051;-62
2023/03/23 11:24:45;;;;;;;8.18;5.53;;;563.30;1356.80;;;;;;4954502;29;20108;-62
2023/03/23 11:27:12;;;;;;;7.78;6.00;;;563.60;1356.80;;;;;;4954004;29;20114;-62
2023/03/23 11:29:53;;;;;;;11.18;7.38;;;563.30;1331.20;;;;;;4954514;29;20027;-61
2023/03/23 11:32:23;;;;;;;7.30;5.10;;;563.40;1356.80;;;;;;4965364;28;20053;-62
2023/03/23 11:34:53;;;;;;;7.50;4.78;;;538.50;1305.60;;;;;;4973543;28;20038;-62
2023/03/23 11:37:47;;;;;;;9.85;5.18;;;563.20;1331.20;;;;;;4973560;28;20022;-61
2023/03/23 11:40:20;;;;;;;7.03;4.40;;;538.50;1331.20;;;;;;4973362;28;20042;-61
2023/03/23 11:43:28;;;;;;;5.43;4.40;;;563.20;1331.20;;;;;;4973291;28;20576;-61
2023/03/23 11:46:09;;;;;;;4.75;4.15;;;563.40;1331.20;;;;;;4972985;28;20118;-62
2023/03/23 11:48:57;;;;;;;6.63;5.18;;;563.70;1356.80;;;;;;4973464;28;20023;-61
2023/03/23 11:51:42;;;;;;;7.53;5.07;;;563.90;1331.20;;;;;;4973350;28;20055;-63
2023/03/23 11:54:32;;;;;;;5.32;4.63;;;563.90;1331.20;;;;;;4962892;28;20046;-62
2023/03/23 11:56:57;;;;;;;7.00;5.60;;;564.00;1356.80;;;;;;4972794;28;20022;-62
2023/03/23 11:59:35;;;;;;;5.15;4.15;;;588.80;1382.40;;;;;;4973505;28;20030;-62
2023/03/23 12:02:01;;;;;;;5.55;4.50;;;588.90;1305.60;;;;;;4973334;28;20026;-62
2023/03/23 12:04:45;;;;;;;10.02;7.78;;;589.00;1280.00;;;;;;4973001;28;20475;-63
2023/03/23 12:07:36;;;;;;;7.10;4.90;;;563.70;1305.60;;;;;;4972992;28;20034;-63
2023/03/23 12:10:20;;;;;;;6.68;4.85;;;563.70;1305.60;;;;;;4959855;28;20022;-62
2023/03/23 12:13:15;;;;;;;7.32;5.03;;;563.60;1305.60;;;;;;4972842;28;20050;-63
2023/03/23 12:16:15;;;;;;;6.45;4.53;;;563.60;1331.20;;;;;;4894235;29;20095;-63
2023/03/23 12:19:08;;;;;;;6.07;4.65;;;564.00;1356.80;;;;;;4894191;29;20111;-62
2023/03/23 12:21:52;;;;;;;10.25;5.32;;;564.00;1331.20;;;;;;4894304;29;20143;-61
2023/03/23 12:24:29;;;;;;;8.15;4.85;;;564.10;1356.80;;;;;;4893894;29;20040;-62